sensor_id;sensor_type;location;lat;lon;timestamp;pressure;altitude;pressure_sealevel;temperature;humidity
15314;BME280;7757;52.626;4.746;2022-10-26T00:00:42;101233.88;;;19.02;67.08
15314;BME280;7757;52.626;4.746;2022-10-26T00:03:09;101242.94;;;18.95;66.84
15314;BME280;7757;52.626;4.746;2022-10-26T00:05:35;101233.28;;;19.00;66.49
15314;BME280;7757;52.626;4.746;2022-10-26T00:08:02;101238.53;;;18.83;66.82
15314;BME280;7757;52.626;4.746;2022-10-26T00:10:29;101238.03;;;18.74;66.96
15314;BME280;7757;52.626;4.746;2022-10-26T00:12:56;101239.38;;;18.83;67.19
15314;BME280;7757;52.626;4.746;2022-10-26T00:15:24;101228.41;;;18.90;66.83
15314;BME280;7757;52.626;4.746;2022-10-26T00:17:51;101223.25;;;18.88;66.96
15314;BME280;7757;52.626;4.746;2022-10-26T00:20:17;101229.72;;;18.87;66.32
15314;BME280;7757;52.626;4.746;2022-10-26T00:22:44;101225.91;;;18.77;66.76
15314;BME280;7757;52.626;4.746;2022-10-26T00:25:11;101215.19;;;18.82;66.54
15314;BME280;7757;52.626;4.746;2022-10-26T00:27:37;101218.78;;;18.94;67.03
15314;BME280;7757;52.626;4.746;2022-10-26T00:30:05;101217.81;;;18.88;66.96
15314;BME280;7757;52.626;4.746;2022-10-26T00:32:33;101225.13;;;18.88;67.00
15314;BME280;7757;52.626;4.746;2022-10-26T00:35:00;101224.38;;;18.81;67.16
15314;BME280;7757;52.626;4.746;2022-10-26T00:37:27;101219.00;;;18.92;66.93
15314;BME280;7757;52.626;4.746;2022-10-26T00:39:54;101216.94;;;18.76;66.50
15314;BME280;7757;52.626;4.746;2022-10-26T00:42:21;101211.81;;;18.86;66.95
15314;BME280;7757;52.626;4.746;2022-10-26T00:45:00;101211.47;;;18.94;66.70
15314;BME280;7757;52.626;4.746;2022-10-26T00:47:37;101203.91;;;18.55;67.77
15314;BME280;7757;52.626;4.746;2022-10-26T00:50:08;101209.91;;;18.57;67.28
15314;BME280;7757;52.626;4.746;2022-10-26T00:52:36;101199.94;;;18.69;66.99
15314;BME280;7757;52.626;4.746;2022-10-26T00:55:05;101197.88;;;18.83;66.72
15314;BME280;7757;52.626;4.746;2022-10-26T00:57:33;101199.03;;;18.75;66.48
15314;BME280;7757;52.626;4.746;2022-10-26T01:00:00;101193.06;;;18.55;66.72
15314;BME280;7757;52.626;4.746;2022-10-26T01:02:27;101196.28;;;18.64;66.66
15314;BME280;7757;52.626;4.746;2022-10-26T01:04:56;101196.97;;;18.59;66.40
15314;BME280;7757;52.626;4.746;2022-10-26T01:07:24;101189.38;;;18.79;66.82
15314;BME280;7757;52.626;4.746;2022-10-26T01:09:52;101185.38;;;18.82;67.00
15314;BME280;7757;52.626;4.746;2022-10-26T01:12:18;101180.31;;;18.74;67.01
15314;BME280;7757;52.626;4.746;2022-10-26T01:14:45;101175.34;;;18.71;66.51
15314;BME280;7757;52.626;4.746;2022-10-26T01:17:26;101180.41;;;18.67;66.95
15314;BME280;7757;52.626;4.746;2022-10-26T01:20:17;101170.28;;;18.74;66.60
15314;BME280;7757;52.626;4.746;2022-10-26T01:22:50;101165.34;;;18.71;66.38
15314;BME280;7757;52.626;4.746;2022-10-26T01:25:35;101166.34;;;18.59;66.65
15314;BME280;7757;52.626;4.746;2022-10-26T01:28:12;101156.56;;;18.39;67.30
15314;BME280;7757;52.626;4.746;2022-10-26T01:30:46;101152.91;;;18.52;66.58
15314;BME280;7757;52.626;4.746;2022-10-26T01:33:23;101148.91;;;18.55;66.53
15314;BME280;7757;52.626;4.746;2022-10-26T01:35:55;101151.13;;;18.58;66.02
15314;BME280;7757;52.626;4.746;2022-10-26T01:38:30;101138.22;;;18.60;66.42
15314;BME280;7757;52.626;4.746;2022-10-26T01:41:03;101147.13;;;18.01;65.86
15314;BME280;7757;52.626;4.746;2022-10-26T01:43:34;101136.47;;;18.17;68.32
15314;BME280;7757;52.626;4.746;2022-10-26T01:46:04;101132.44;;;18.38;67.07
15314;BME280;7757;52.626;4.746;2022-10-26T01:48:32;101136.06;;;18.32;67.79
15314;BME280;7757;52.626;4.746;2022-10-26T01:51:00;101124.53;;;18.36;67.20
15314;BME280;7757;52.626;4.746;2022-10-26T01:53:29;101132.47;;;18.20;67.38
15314;BME280;7757;52.626;4.746;2022-10-26T01:55:56;101137.13;;;18.31;67.02
15314;BME280;7757;52.626;4.746;2022-10-26T01:58:39;101134.22;;;18.14;67.09
15314;BME280;7757;52.626;4.746;2022-10-26T02:01:19;101129.31;;;18.23;67.33
15314;BME280;7757;52.626;4.746;2022-10-26T02:03:56;101128.34;;;18.47;67.22
15314;BME280;7757;52.626;4.746;2022-10-26T02:06:35;101118.44;;;18.41;66.74
15314;BME280;7757;52.626;4.746;2022-10-26T02:09:12;101122.84;;;18.24;67.98
15314;BME280;7757;52.626;4.746;2022-10-26T02:11:46;101117.47;;;18.35;67.16
15314;BME280;7757;52.626;4.746;2022-10-26T02:14:17;101100.78;;;18.38;67.67
15314;BME280;7757;52.626;4.746;2022-10-26T02:16:54;101117.69;;;18.52;67.32
15314;BME280;7757;52.626;4.746;2022-10-26T02:19:31;101113.03;;;18.41;66.85
15314;BME280;7757;52.626;4.746;2022-10-26T02:22:03;101111.09;;;18.30;67.86
15314;BME280;7757;52.626;4.746;2022-10-26T02:24:33;101116.09;;;18.45;67.58
15314;BME280;7757;52.626;4.746;2022-10-26T02:27:04;101113.94;;;18.35;67.49
15314;BME280;7757;52.626;4.746;2022-10-26T02:29:32;101118.13;;;18.19;67.10
15314;BME280;7757;52.626;4.746;2022-10-26T02:32:02;101105.25;;;18.33;66.95
15314;BME280;7757;52.626;4.746;2022-10-26T02:34:31;101103.13;;;18.35;67.04
15314;BME280;7757;52.626;4.746;2022-10-26T02:37:00;101099.44;;;18.29;66.60
15314;BME280;7757;52.626;4.746;2022-10-26T02:39:30;101104.81;;;18.18;66.99
15314;BME280;7757;52.626;4.746;2022-10-26T02:41:59;101099.63;;;18.16;67.10
15314;BME280;7757;52.626;4.746;2022-10-26T02:44:30;101099.16;;;18.19;66.77
15314;BME280;7757;52.626;4.746;2022-10-26T02:46:58;101095.41;;;18.20;66.95
15314;BME280;7757;52.626;4.746;2022-10-26T02:49:27;101099.53;;;18.23;66.72
15314;BME280;7757;52.626;4.746;2022-10-26T02:52:00;101092.91;;;18.19;66.28
15314;BME280;7757;52.626;4.746;2022-10-26T02:54:32;101094.56;;;17.72;67.55
15314;BME280;7757;52.626;4.746;2022-10-26T02:57:04;101098.03;;;17.61;67.64
15314;BME280;7757;52.626;4.746;2022-10-26T02:59:35;101096.22;;;17.91;66.81
15314;BME280;7757;52.626;4.746;2022-10-26T03:02:04;101093.50;;;17.91;66.82
15314;BME280;7757;52.626;4.746;2022-10-26T03:04:33;101092.81;;;17.96;66.68
15314;BME280;7757;52.626;4.746;2022-10-26T03:07:00;101088.81;;;17.68;67.15
15314;BME280;7757;52.626;4.746;2022-10-26T03:09:27;101082.75;;;17.84;67.41
15314;BME280;7757;52.626;4.746;2022-10-26T03:11:54;101079.34;;;17.59;67.58
15314;BME280;7757;52.626;4.746;2022-10-26T03:14:20;101083.47;;;18.10;66.69
15314;BME280;7757;52.626;4.746;2022-10-26T03:16:47;101080.88;;;18.03;67.16
15314;BME280;7757;52.626;4.746;2022-10-26T03:19:13;101072.09;;;18.19;67.02
15314;BME280;7757;52.626;4.746;2022-10-26T03:21:44;101076.13;;;17.99;67.79
15314;BME280;7757;52.626;4.746;2022-10-26T03:24:11;101064.72;;;17.97;66.65
15314;BME280;7757;52.626;4.746;2022-10-26T03:26:37;101065.75;;;17.96;67.04
15314;BME280;7757;52.626;4.746;2022-10-26T03:29:04;101068.22;;;17.67;66.62
15314;BME280;7757;52.626;4.746;2022-10-26T03:31:30;101068.03;;;17.80;67.11
15314;BME280;7757;52.626;4.746;2022-10-26T03:33:57;101072.19;;;17.83;67.26
15314;BME280;7757;52.626;4.746;2022-10-26T03:36:24;101078.41;;;17.83;67.38
15314;BME280;7757;52.626;4.746;2022-10-26T03:38:52;101069.75;;;17.93;67.25
15314;BME280;7757;52.626;4.746;2022-10-26T03:41:18;101079.38;;;17.89;66.59
15314;BME280;7757;52.626;4.746;2022-10-26T03:43:45;101068.94;;;17.74;66.94
15314;BME280;7757;52.626;4.746;2022-10-26T03:46:12;101069.03;;;17.68;66.86
15314;BME280;7757;52.626;4.746;2022-10-26T03:48:39;101054.91;;;17.66;67.55
15314;BME280;7757;52.626;4.746;2022-10-26T03:51:05;101058.28;;;17.79;67.28
15314;BME280;7757;52.626;4.746;2022-10-26T03:53:32;101044.44;;;17.88;67.54
15314;BME280;7757;52.626;4.746;2022-10-26T03:56:00;101048.56;;;17.54;66.31
15314;BME280;7757;52.626;4.746;2022-10-26T03:58:26;101053.03;;;17.66;67.59
15314;BME280;7757;52.626;4.746;2022-10-26T04:00:53;101046.63;;;17.79;66.96
15314;BME280;7757;52.626;4.746;2022-10-26T04:03:20;101040.34;;;17.97;66.54
15314;BME280;7757;52.626;4.746;2022-10-26T04:05:49;101045.44;;;18.05;66.83
15314;BME280;7757;52.626;4.746;2022-10-26T04:08:16;101049.44;;;18.02;67.40
15314;BME280;7757;52.626;4.746;2022-10-26T04:10:44;101044.59;;;18.04;66.69
15314;BME280;7757;52.626;4.746;2022-10-26T04:13:13;101043.44;;;18.00;67.12
15314;BME280;7757;52.626;4.746;2022-10-26T04:15:39;101046.50;;;18.04;67.37
15314;BME280;7757;52.626;4.746;2022-10-26T04:18:08;101048.38;;;18.03;67.23
15314;BME280;7757;52.626;4.746;2022-10-26T04:20:37;101046.34;;;17.99;66.88
15314;BME280;7757;52.626;4.746;2022-10-26T04:23:06;101038.47;;;17.97;67.48
15314;BME280;7757;52.626;4.746;2022-10-26T04:25:35;101035.91;;;18.02;67.08
15314;BME280;7757;52.626;4.746;2022-10-26T04:28:03;101029.03;;;17.88;67.51
15314;BME280;7757;52.626;4.746;2022-10-26T04:30:33;101040.00;;;17.75;67.38
15314;BME280;7757;52.626;4.746;2022-10-26T04:32:59;101032.59;;;17.70;67.82
15314;BME280;7757;52.626;4.746;2022-10-26T04:35:27;101027.56;;;17.74;67.88
15314;BME280;7757;52.626;4.746;2022-10-26T04:37:56;101036.56;;;17.86;66.80
15314;BME280;7757;52.626;4.746;2022-10-26T04:40:23;101037.97;;;17.89;66.76
15314;BME280;7757;52.626;4.746;2022-10-26T04:42:50;101043.34;;;17.59;67.29
15314;BME280;7757;52.626;4.746;2022-10-26T04:45:16;101049.41;;;17.72;67.29
15314;BME280;7757;52.626;4.746;2022-10-26T04:47:44;101035.81;;;17.79;66.25
15314;BME280;7757;52.626;4.746;2022-10-26T04:50:11;101046.94;;;17.71;66.89
15314;BME280;7757;52.626;4.746;2022-10-26T04:52:38;101039.09;;;17.81;67.11
15314;BME280;7757;52.626;4.746;2022-10-26T04:55:06;101036.25;;;17.76;66.78
15314;BME280;7757;52.626;4.746;2022-10-26T04:57:33;101033.31;;;17.77;66.64
15314;BME280;7757;52.626;4.746;2022-10-26T05:00:00;101033.69;;;17.81;66.67
15314;BME280;7757;52.626;4.746;2022-10-26T05:02:28;101026.09;;;17.71;66.33
15314;BME280;7757;52.626;4.746;2022-10-26T05:04:56;101031.06;;;17.74;66.54
15314;BME280;7757;52.626;4.746;2022-10-26T05:07:22;101035.81;;;17.61;66.99
15314;BME280;7757;52.626;4.746;2022-10-26T05:09:49;101028.16;;;17.76;66.71
15314;BME280;7757;52.626;4.746;2022-10-26T05:12:15;101020.81;;;17.65;67.33
15314;BME280;7757;52.626;4.746;2022-10-26T05:14:43;101035.28;;;17.70;67.24
15314;BME280;7757;52.626;4.746;2022-10-26T05:17:09;101034.84;;;17.55;67.42
15314;BME280;7757;52.626;4.746;2022-10-26T05:19:36;101029.81;;;17.59;67.89
15314;BME280;7757;52.626;4.746;2022-10-26T05:22:04;101035.97;;;17.66;66.90
15314;BME280;7757;52.626;4.746;2022-10-26T05:24:30;101025.97;;;17.66;67.29
15314;BME280;7757;52.626;4.746;2022-10-26T05:26:57;101025.88;;;17.73;67.05
15314;BME280;7757;52.626;4.746;2022-10-26T05:29:24;101020.44;;;17.61;67.34
15314;BME280;7757;52.626;4.746;2022-10-26T05:31:50;101012.81;;;17.70;67.42
15314;BME280;7757;52.626;4.746;2022-10-26T05:34:17;101026.66;;;17.25;67.16
15314;BME280;7757;52.626;4.746;2022-10-26T05:36:43;101012.44;;;17.48;68.13
15314;BME280;7757;52.626;4.746;2022-10-26T05:39:11;101008.75;;;17.79;66.88
15314;BME280;7757;52.626;4.746;2022-10-26T05:41:38;100993.44;;;17.73;67.54
15314;BME280;7757;52.626;4.746;2022-10-26T05:44:04;100996.31;;;17.42;67.73
15314;BME280;7757;52.626;4.746;2022-10-26T05:46:31;100996.66;;;17.63;67.66
15314;BME280;7757;52.626;4.746;2022-10-26T05:48:58;100992.00;;;17.70;67.38
15314;BME280;7757;52.626;4.746;2022-10-26T05:51:24;101002.75;;;17.41;67.69
15314;BME280;7757;52.626;4.746;2022-10-26T05:53:51;101000.44;;;17.62;67.42
15314;BME280;7757;52.626;4.746;2022-10-26T05:56:33;101011.66;;;17.77;67.46
15314;BME280;7757;52.626;4.746;2022-10-26T05:59:01;101013.00;;;17.87;67.74
15314;BME280;7757;52.626;4.746;2022-10-26T06:01:35;101018.22;;;17.70;67.28
15314;BME280;7757;52.626;4.746;2022-10-26T06:04:20;101018.88;;;17.83;67.06
15314;BME280;7757;52.626;4.746;2022-10-26T06:06:53;101015.38;;;17.83;67.16
15314;BME280;7757;52.626;4.746;2022-10-26T06:09:20;101020.03;;;17.76;67.71
15314;BME280;7757;52.626;4.746;2022-10-26T06:11:49;101029.75;;;17.65;67.82
15314;BME280;7757;52.626;4.746;2022-10-26T06:14:16;101025.31;;;17.71;68.18
15314;BME280;7757;52.626;4.746;2022-10-26T06:16:59;101021.16;;;17.98;67.35
15314;BME280;7757;52.626;4.746;2022-10-26T06:19:40;101019.69;;;17.84;67.81
15314;BME280;7757;52.626;4.746;2022-10-26T06:22:22;101016.41;;;18.12;67.32
15314;BME280;7757;52.626;4.746;2022-10-26T06:24:59;101020.97;;;18.11;67.46
15314;BME280;7757;52.626;4.746;2022-10-26T06:27:37;101018.00;;;18.01;67.07
15314;BME280;7757;52.626;4.746;2022-10-26T06:30:09;101018.91;;;17.95;67.30
15314;BME280;7757;52.626;4.746;2022-10-26T06:32:37;101023.09;;;17.79;67.81
15314;BME280;7757;52.626;4.746;2022-10-26T06:35:14;101027.00;;;17.83;67.85
15314;BME280;7757;52.626;4.746;2022-10-26T06:37:44;101021.50;;;17.90;67.30
15314;BME280;7757;52.626;4.746;2022-10-26T06:40:13;101007.88;;;17.67;67.04
15314;BME280;7757;52.626;4.746;2022-10-26T06:42:43;101027.44;;;17.80;66.93
15314;BME280;7757;52.626;4.746;2022-10-26T06:45:11;101033.09;;;17.79;67.14
15314;BME280;7757;52.626;4.746;2022-10-26T06:47:44;101025.81;;;17.79;67.08
15314;BME280;7757;52.626;4.746;2022-10-26T06:50:26;101025.34;;;17.82;66.53
15314;BME280;7757;52.626;4.746;2022-10-26T06:53:03;101026.69;;;17.92;66.77
15314;BME280;7757;52.626;4.746;2022-10-26T06:55:38;101021.31;;;17.73;66.84
15314;BME280;7757;52.626;4.746;2022-10-26T06:58:10;101020.53;;;17.84;67.00
15314;BME280;7757;52.626;4.746;2022-10-26T07:00:43;101018.13;;;17.95;66.40
15314;BME280;7757;52.626;4.746;2022-10-26T07:03:09;101031.16;;;17.86;66.74
15314;BME280;7757;52.626;4.746;2022-10-26T07:05:36;101024.31;;;18.25;65.86
15314;BME280;7757;52.626;4.746;2022-10-26T07:08:03;101034.47;;;18.29;65.85
15314;BME280;7757;52.626;4.746;2022-10-26T07:10:30;101034.28;;;18.13;66.01
15314;BME280;7757;52.626;4.746;2022-10-26T07:12:57;101045.09;;;18.13;65.94
15314;BME280;7757;52.626;4.746;2022-10-26T07:15:25;101037.53;;;18.33;65.50
15314;BME280;7757;52.626;4.746;2022-10-26T07:17:51;101049.91;;;18.40;65.96
15314;BME280;7757;52.626;4.746;2022-10-26T07:20:19;101031.28;;;18.32;64.85
15314;BME280;7757;52.626;4.746;2022-10-26T07:22:50;101031.06;;;18.46;65.16
15314;BME280;7757;52.626;4.746;2022-10-26T07:25:17;101044.03;;;18.44;65.46
15314;BME280;7757;52.626;4.746;2022-10-26T07:27:44;101037.50;;;18.21;65.28
15314;BME280;7757;52.626;4.746;2022-10-26T07:30:11;101030.06;;;18.17;65.54
15314;BME280;7757;52.626;4.746;2022-10-26T07:32:39;101025.38;;;18.24;65.57
15314;BME280;7757;52.626;4.746;2022-10-26T07:35:06;101051.06;;;18.33;65.26
15314;BME280;7757;52.626;4.746;2022-10-26T07:37:33;101053.66;;;18.39;65.16
15314;BME280;7757;52.626;4.746;2022-10-26T07:40:00;101044.94;;;18.26;65.27
15314;BME280;7757;52.626;4.746;2022-10-26T07:42:27;101050.06;;;18.16;65.76
15314;BME280;7757;52.626;4.746;2022-10-26T07:44:53;101051.63;;;18.23;65.38
15314;BME280;7757;52.626;4.746;2022-10-26T07:47:20;101047.91;;;18.36;65.12
15314;BME280;7757;52.626;4.746;2022-10-26T07:49:48;101064.03;;;18.42;64.93
15314;BME280;7757;52.626;4.746;2022-10-26T07:52:15;101063.31;;;18.35;65.01
15314;BME280;7757;52.626;4.746;2022-10-26T07:54:41;101069.97;;;18.51;64.86
15314;BME280;7757;52.626;4.746;2022-10-26T07:57:08;101069.78;;;18.34;65.15
15314;BME280;7757;52.626;4.746;2022-10-26T07:59:34;101078.88;;;18.40;65.14
15314;BME280;7757;52.626;4.746;2022-10-26T08:02:01;101075.31;;;18.39;64.99
15314;BME280;7757;52.626;4.746;2022-10-26T08:04:27;101089.75;;;18.52;65.00
15314;BME280;7757;52.626;4.746;2022-10-26T08:06:55;101093.69;;;18.37;65.37
15314;BME280;7757;52.626;4.746;2022-10-26T08:09:22;101092.06;;;18.48;65.15
15314;BME280;7757;52.626;4.746;2022-10-26T08:11:49;101101.09;;;18.60;64.66
15314;BME280;7757;52.626;4.746;2022-10-26T08:14:15;101100.75;;;18.57;64.51
15314;BME280;7757;52.626;4.746;2022-10-26T08:16:42;101099.84;;;18.74;64.23
15314;BME280;7757;52.626;4.746;2022-10-26T08:19:08;101097.66;;;18.53;64.71
15314;BME280;7757;52.626;4.746;2022-10-26T08:21:35;101113.03;;;18.71;64.21
15314;BME280;7757;52.626;4.746;2022-10-26T08:24:03;101079.78;;;18.64;64.05
15314;BME280;7757;52.626;4.746;2022-10-26T08:26:30;101100.69;;;18.86;63.59
15314;BME280;7757;52.626;4.746;2022-10-26T08:28:56;101107.91;;;19.16;63.17
15314;BME280;7757;52.626;4.746;2022-10-26T08:31:23;101116.34;;;19.31;62.72
15314;BME280;7757;52.626;4.746;2022-10-26T08:33:50;101113.06;;;19.17;63.07
15314;BME280;7757;52.626;4.746;2022-10-26T08:36:19;101109.53;;;19.05;63.50
15314;BME280;7757;52.626;4.746;2022-10-26T08:38:47;101115.56;;;19.07;63.57
15314;BME280;7757;52.626;4.746;2022-10-26T08:41:16;101118.97;;;19.14;63.41
15314;BME280;7757;52.626;4.746;2022-10-26T08:43:47;101099.03;;;19.32;62.69
15314;BME280;7757;52.626;4.746;2022-10-26T08:46:16;101090.44;;;19.35;62.77
15314;BME280;7757;52.626;4.746;2022-10-26T08:48:48;101092.09;;;19.24;63.20
15314;BME280;7757;52.626;4.746;2022-10-26T08:51:18;101080.97;;;19.37;62.82
15314;BME280;7757;52.626;4.746;2022-10-26T08:53:49;101081.34;;;19.29;63.06
15314;BME280;7757;52.626;4.746;2022-10-26T08:56:22;101094.53;;;19.37;62.75
15314;BME280;7757;52.626;4.746;2022-10-26T08:58:53;101077.34;;;19.32;63.26
15314;BME280;7757;52.626;4.746;2022-10-26T09:01:21;101092.94;;;19.48;63.26
15314;BME280;7757;52.626;4.746;2022-10-26T09:03:48;101089.75;;;19.39;63.21
15314;BME280;7757;52.626;4.746;2022-10-26T09:06:20;101085.84;;;19.47;63.18
15314;BME280;7757;52.626;4.746;2022-10-26T09:08:51;101089.84;;;19.56;62.55
15314;BME280;7757;52.626;4.746;2022-10-26T09:11:37;101099.88;;;19.56;62.52
15314;BME280;7757;52.626;4.746;2022-10-26T09:14:12;101095.03;;;19.46;62.94
15314;BME280;7757;52.626;4.746;2022-10-26T09:16:50;101094.09;;;19.52;62.96
15314;BME280;7757;52.626;4.746;2022-10-26T09:19:34;101102.00;;;19.30;63.38
15314;BME280;7757;52.626;4.746;2022-10-26T09:22:14;101107.53;;;19.35;63.27
15314;BME280;7757;52.626;4.746;2022-10-26T09:24:47;101102.47;;;19.27;63.99
15314;BME280;7757;52.626;4.746;2022-10-26T09:27:20;101102.94;;;19.59;63.62
15314;BME280;7757;52.626;4.746;2022-10-26T09:29:50;101100.25;;;19.87;62.64
15314;BME280;7757;52.626;4.746;2022-10-26T09:32:19;101122.72;;;19.83;62.63
15314;BME280;7757;52.626;4.746;2022-10-26T09:34:48;101128.38;;;19.70;63.07
15314;BME280;7757;52.626;4.746;2022-10-26T09:37:18;101115.75;;;19.87;62.71
15314;BME280;7757;52.626;4.746;2022-10-26T09:39:54;101131.78;;;19.88;62.24
15314;BME280;7757;52.626;4.746;2022-10-26T09:42:27;101131.19;;;19.98;62.03
15314;BME280;7757;52.626;4.746;2022-10-26T09:44:59;101138.19;;;20.11;62.33
15314;BME280;7757;52.626;4.746;2022-10-26T09:47:32;101134.56;;;20.05;62.03
15314;BME280;7757;52.626;4.746;2022-10-26T09:50:05;101133.72;;;20.28;61.59
15314;BME280;7757;52.626;4.746;2022-10-26T09:52:35;101133.59;;;20.11;61.79
15314;BME280;7757;52.626;4.746;2022-10-26T09:55:02;101138.41;;;20.32;61.75
15314;BME280;7757;52.626;4.746;2022-10-26T09:57:30;101139.44;;;20.43;61.27
15314;BME280;7757;52.626;4.746;2022-10-26T09:59:57;101137.22;;;20.28;62.28
15314;BME280;7757;52.626;4.746;2022-10-26T10:02:34;101144.19;;;20.36;62.19
15314;BME280;7757;52.626;4.746;2022-10-26T10:05:02;101156.50;;;20.27;62.13
15314;BME280;7757;52.626;4.746;2022-10-26T10:07:46;101159.13;;;20.10;62.83
15314;BME280;7757;52.626;4.746;2022-10-26T10:10:15;101144.19;;;20.24;62.49
15314;BME280;7757;52.626;4.746;2022-10-26T10:12:45;101154.22;;;20.24;62.79
15314;BME280;7757;52.626;4.746;2022-10-26T10:15:19;101157.69;;;20.08;63.08
15314;BME280;7757;52.626;4.746;2022-10-26T10:17:47;101159.66;;;20.24;62.55
15314;BME280;7757;52.626;4.746;2022-10-26T10:20:19;101171.50;;;20.18;62.63
15314;BME280;7757;52.626;4.746;2022-10-26T10:22:57;101181.50;;;20.29;62.65
15314;BME280;7757;52.626;4.746;2022-10-26T10:25:32;101190.63;;;20.11;63.42
15314;BME280;7757;52.626;4.746;2022-10-26T10:28:02;101194.06;;;20.07;63.26
15314;BME280;7757;52.626;4.746;2022-10-26T10:30:30;101199.69;;;20.28;63.48
15314;BME280;7757;52.626;4.746;2022-10-26T10:33:05;101199.13;;;20.26;63.01
15314;BME280;7757;52.626;4.746;2022-10-26T10:35:32;101204.84;;;20.01;63.87
15314;BME280;7757;52.626;4.746;2022-10-26T10:37:59;101203.06;;;19.95;64.26
15314;BME280;7757;52.626;4.746;2022-10-26T10:40:26;101208.84;;;19.99;64.10
15314;BME280;7757;52.626;4.746;2022-10-26T10:43:04;101214.59;;;20.14;63.64
15314;BME280;7757;52.626;4.746;2022-10-26T10:45:31;101227.63;;;19.77;64.56
15314;BME280;7757;52.626;4.746;2022-10-26T10:48:01;101221.22;;;20.07;64.23
15314;BME280;7757;52.626;4.746;2022-10-26T10:50:29;101220.72;;;20.21;64.40
15314;BME280;7757;52.626;4.746;2022-10-26T10:53:14;101235.97;;;20.11;65.55
15314;BME280;7757;52.626;4.746;2022-10-26T10:55:51;101223.50;;;19.98;64.60
15314;BME280;7757;52.626;4.746;2022-10-26T10:58:28;101233.63;;;19.91;65.36
15314;BME280;7757;52.626;4.746;2022-10-26T11:00:58;101231.41;;;19.88;66.52
15314;BME280;7757;52.626;4.746;2022-10-26T11:03:41;101225.84;;;19.94;66.34
15314;BME280;7757;52.626;4.746;2022-10-26T11:06:15;101236.16;;;19.81;66.96
15314;BME280;7757;52.626;4.746;2022-10-26T11:08:47;101232.94;;;19.72;67.74
15314;BME280;7757;52.626;4.746;2022-10-26T11:11:18;101234.00;;;19.71;67.14
15314;BME280;7757;52.626;4.746;2022-10-26T11:13:55;101242.38;;;19.58;68.32
15314;BME280;7757;52.626;4.746;2022-10-26T11:16:27;101240.13;;;19.55;68.08
15314;BME280;7757;52.626;4.746;2022-10-26T11:18:58;101237.06;;;19.86;67.74
15314;BME280;7757;52.626;4.746;2022-10-26T11:21:28;101238.38;;;19.84;67.61
15314;BME280;7757;52.626;4.746;2022-10-26T11:24:01;101242.50;;;19.86;67.48
15314;BME280;7757;52.626;4.746;2022-10-26T11:26:39;101238.97;;;19.86;67.43
15314;BME280;7757;52.626;4.746;2022-10-26T11:29:18;101238.22;;;20.02;67.11
15314;BME280;7757;52.626;4.746;2022-10-26T11:31:50;101243.81;;;19.84;68.17
15314;BME280;7757;52.626;4.746;2022-10-26T11:34:24;101246.28;;;19.74;67.97
15314;BME280;7757;52.626;4.746;2022-10-26T11:36:56;101253.94;;;19.65;68.75
15314;BME280;7757;52.626;4.746;2022-10-26T11:39:35;101262.31;;;19.75;68.53
15314;BME280;7757;52.626;4.746;2022-10-26T11:42:08;101258.19;;;19.84;67.74
15314;BME280;7757;52.626;4.746;2022-10-26T11:44:42;101256.88;;;19.75;68.16
15314;BME280;7757;52.626;4.746;2022-10-26T11:47:15;101259.75;;;19.80;68.14
15314;BME280;7757;52.626;4.746;2022-10-26T11:49:46;101257.38;;;19.84;68.27
15314;BME280;7757;52.626;4.746;2022-10-26T11:52:18;101266.22;;;19.79;68.34
15314;BME280;7757;52.626;4.746;2022-10-26T11:54:48;101271.66;;;19.79;68.28
15314;BME280;7757;52.626;4.746;2022-10-26T11:57:19;101261.72;;;19.85;68.00
15314;BME280;7757;52.626;4.746;2022-10-26T11:59:49;101261.84;;;19.67;68.63
15314;BME280;7757;52.626;4.746;2022-10-26T12:02:19;101272.47;;;19.80;68.52
15314;BME280;7757;52.626;4.746;2022-10-26T12:04:49;101273.41;;;19.85;68.27
15314;BME280;7757;52.626;4.746;2022-10-26T12:07:22;101279.78;;;19.68;68.52
15314;BME280;7757;52.626;4.746;2022-10-26T12:09:50;101262.66;;;19.56;69.22
15314;BME280;7757;52.626;4.746;2022-10-26T12:12:22;101281.66;;;19.44;69.22
15314;BME280;7757;52.626;4.746;2022-10-26T12:14:56;101273.06;;;19.59;69.44
15314;BME280;7757;52.626;4.746;2022-10-26T12:17:30;101283.31;;;19.57;69.90
15314;BME280;7757;52.626;4.746;2022-10-26T12:20:05;101288.41;;;19.65;69.30
15314;BME280;7757;52.626;4.746;2022-10-26T12:22:39;101283.56;;;19.78;68.26
15314;BME280;7757;52.626;4.746;2022-10-26T12:25:18;101282.63;;;19.73;69.32
15314;BME280;7757;52.626;4.746;2022-10-26T12:27:53;101279.91;;;19.73;68.83
15314;BME280;7757;52.626;4.746;2022-10-26T12:30:27;101285.34;;;19.84;68.70
15314;BME280;7757;52.626;4.746;2022-10-26T12:32:56;101301.03;;;19.82;68.79
15314;BME280;7757;52.626;4.746;2022-10-26T12:35:29;101293.25;;;19.63;69.43
15314;BME280;7757;52.626;4.746;2022-10-26T12:37:56;101291.00;;;19.71;68.97
15314;BME280;7757;52.626;4.746;2022-10-26T12:40:40;101297.38;;;19.65;69.44
15314;BME280;7757;52.626;4.746;2022-10-26T12:43:33;101306.94;;;19.79;68.61
15314;BME280;7757;52.626;4.746;2022-10-26T12:52:48;101315.91;;;19.68;69.38
15314;BME280;7757;52.626;4.746;2022-10-26T12:55:55;101323.09;;;19.74;69.45
15314;BME280;7757;52.626;4.746;2022-10-26T12:58:40;101328.75;;;19.61;69.97
15314;BME280;7757;52.626;4.746;2022-10-26T13:04:28;101326.03;;;19.61;69.71
15314;BME280;7757;52.626;4.746;2022-10-26T13:07:16;101326.41;;;19.65;69.61
15314;BME280;7757;52.626;4.746;2022-10-26T13:09:51;101317.41;;;19.64;69.71
15314;BME280;7757;52.626;4.746;2022-10-26T13:12:20;101325.22;;;19.72;68.89
15314;BME280;7757;52.626;4.746;2022-10-26T13:14:58;101327.22;;;19.65;68.78
15314;BME280;7757;52.626;4.746;2022-10-26T13:17:27;101339.75;;;19.66;69.23
15314;BME280;7757;52.626;4.746;2022-10-26T13:19:56;101348.09;;;19.65;69.11
15314;BME280;7757;52.626;4.746;2022-10-26T13:22:23;101331.44;;;19.61;68.93
15314;BME280;7757;52.626;4.746;2022-10-26T13:24:53;101333.47;;;19.66;68.61
15314;BME280;7757;52.626;4.746;2022-10-26T13:27:43;101337.50;;;19.63;68.53